Blue Grass, North Dakota
Current Conditions -  °F | °C
As of 2:55 AM on Monday 20 Oct 2014 (Local Time) from KY19 Reporting Station
Broken Clouds Broken Clouds  
Wind Chill: 35°   Ceiling: 2600
Heat Index: 39°   Visibility: 10mi
Dew Point: 36°   Wind: 6mph
Humidity: 87%   Direction: 270°W
Pressure: 30.05"   Gusts: NA
Location:  46.861°N, 101.466°W
Report Text: KY19 200755Z AUTO 27005KT 10SM FEW016 BKN026 04/02 A3005 RMK AO2
Loading
Personal Weather Stations






























Interactive Weather Map
Tropical Storm Tracking
New forecast layout! Learn more

10-Day Weather Forecast

Advertisements
Track Severe Weather on mobile